Redig, South Dakota
Current Conditions -  °F | °C
As of 7:35 PM on Sunday 21 Dec 2014 (Local Time) from KSPF Reporting Station
Light Rain Light Rain  
Wind Chill: 29°   Ceiling: 2400
Heat Index: 39°   Visibility: 5mi
Dew Point: 34°   Wind: 23mph
Humidity: 81%   Direction: 320°NW
Pressure: 29.49"   Gusts: 30mph
Location:  45.27°N, 103.55°W
Report Text: KSPF 220235Z AUTO 32020G26KT 5SM -RA BKN024 04/01 A2949 RMK AO2 P0001
Loading
Personal Weather Stations






























Interactive Weather Map New forecast layout! Learn more

10-Day Weather Forecast

Advertisements
Track Severe Weather on mobile